Aéroclub Castres-Mazamet
ACCUEIL




METAR
LFCK 301030Z AUTO 12011KT 090V160 CAVOK 23/14 Q1016 NOSIG



Liens utiles


F.F.A
Météo France
OLIVIA
SIA
D.G.A.C

Bienvenue à l'aéroclub de Castres-Mazamet


Tout le Conseil d'Administration vous souhaite une bonne année 2021!


               


Actualités

 2021 Est là   
Publié le 08-Jan-2021    
Bonne et heureuse année à toutes et tous. 2021 est arrivée, pensez à renouveler votre adhésion au Club, et plus que tout votre assurance, pour pouvoir voler. Pensez également à vérifier la validité de votre visite médicale. Le bureau reste à votre écoute!


 Reprise des vols   
Publié le 15-Dec-2020    
Cher amis pilotes, suite à la réponse du Chef de Cabinet de la DSAC SUD, nous vous informons de la reprise de tous les vols, dans le respect du couvre feu (aucun vol entre 20 heures et 06 heures) et à l'ensemble des gestes barrières à compter de ce jour.


 Vols instruction suspendus   
Publié le 03-Dec-2020    
Chers pilotes, Après différents échanges avec nos autorités de tutelle et précisions faites de DGAC nous avons le regret de devoir suspendre les vols d’instruction. Nous espérons que les assouplissements prochains permettrons de reprendre l'instruction.


 Calendrier de l'Avent   
Publié le 02-Dec-2020    
Le club aussi a son calendrier de l'avent. Allez le consulter en cliquant sur le "lien utile" à gauche de cette information.


Voir plus